sensor_id;sensor_type;location;lat;lon;timestamp;temperature;humidity
1592;DHT22;789;51.612;7.510;2024-03-23T00:54:31;9.90;1.00
1592;DHT22;789;51.612;7.510;2024-03-23T00:56:57;9.80;1.00
1592;DHT22;789;51.612;7.510;2024-03-23T00:59:23;9.70;1.00
1592;DHT22;789;51.612;7.510;2024-03-23T01:01:52;9.80;1.00
1592;DHT22;789;51.612;7.510;2024-03-23T01:04:18;10.10;1.00
1592;DHT22;789;51.612;7.510;2024-03-23T01:06:46;9.70;1.00
1592;DHT22;789;51.612;7.510;2024-03-23T01:09:12;9.80;1.00
1592;DHT22;789;51.612;7.510;2024-03-23T01:11:40;9.80;1.00
1592;DHT22;789;51.612;7.510;2024-03-23T01:14:06;9.80;1.00
1592;DHT22;789;51.612;7.510;2024-03-23T01:16:33;9.80;1.00
1592;DHT22;789;51.612;7.510;2024-03-23T01:18:59;9.70;1.00
1592;DHT22;789;51.612;7.510;2024-03-23T01:21:26;9.80;1.00
1592;DHT22;789;51.612;7.510;2024-03-23T01:23:52;9.70;1.00
1592;DHT22;789;51.612;7.510;2024-03-23T01:26:18;9.70;1.00
1592;DHT22;789;51.612;7.510;2024-03-23T01:28:45;9.60;1.00
1592;DHT22;789;51.612;7.510;2024-03-23T01:31:12;9.70;1.00
1592;DHT22;789;51.612;7.510;2024-03-23T01:33:38;9.60;1.00
1592;DHT22;789;51.612;7.510;2024-03-23T01:36:05;9.60;1.00
1592;DHT22;789;51.612;7.510;2024-03-23T01:38:31;9.60;1.00
1592;DHT22;789;51.612;7.510;2024-03-23T01:40:58;9.80;1.00
1592;DHT22;789;51.612;7.510;2024-03-23T01:43:23;9.50;1.00
1592;DHT22;789;51.612;7.510;2024-03-23T01:45:54;9.60;1.00
1592;DHT22;789;51.612;7.510;2024-03-23T01:48:20;9.60;1.00
1592;DHT22;789;51.612;7.510;2024-03-23T01:50:47;9.70;1.00
1592;DHT22;789;51.612;7.510;2024-03-23T01:53:14;9.70;1.00
1592;DHT22;789;51.612;7.510;2024-03-23T01:55:43;9.70;1.00
1592;DHT22;789;51.612;7.510;2024-03-23T01:58:08;10.10;1.00
1592;DHT22;789;51.612;7.510;2024-03-23T02:00:35;9.70;1.00
1592;DHT22;789;51.612;7.510;2024-03-23T02:03:03;9.60;1.00
1592;DHT22;789;51.612;7.510;2024-03-23T02:05:48;9.60;1.00
1592;DHT22;789;51.612;7.510;2024-03-23T02:08:14;9.60;1.00
1592;DHT22;789;51.612;7.510;2024-03-23T02:10:41;9.60;1.00
1592;DHT22;789;51.612;7.510;2024-03-23T02:13:08;9.40;1.00
1592;DHT22;789;51.612;7.510;2024-03-23T02:15:34;9.40;1.00
1592;DHT22;789;51.612;7.510;2024-03-23T02:18:02;9.40;1.00
1592;DHT22;789;51.612;7.510;2024-03-23T02:20:29;9.30;1.00
1592;DHT22;789;51.612;7.510;2024-03-23T02:22:56;9.20;1.00
1592;DHT22;789;51.612;7.510;2024-03-23T02:25:23;9.20;1.00
1592;DHT22;789;51.612;7.510;2024-03-23T02:27:48;9.20;1.00
1592;DHT22;789;51.612;7.510;2024-03-23T02:30:15;9.10;1.00
1592;DHT22;789;51.612;7.510;2024-03-23T02:32:41;9.20;1.00
1592;DHT22;789;51.612;7.510;2024-03-23T02:35:08;9.10;1.00
1592;DHT22;789;51.612;7.510;2024-03-23T02:37:34;9.20;1.00
1592;DHT22;789;51.612;7.510;2024-03-23T02:40:02;9.10;1.00
1592;DHT22;789;51.612;7.510;2024-03-23T02:42:28;9.00;1.00
1592;DHT22;789;51.612;7.510;2024-03-23T02:44:55;8.90;1.00
1592;DHT22;789;51.612;7.510;2024-03-23T02:47:21;8.90;1.00
1592;DHT22;789;51.612;7.510;2024-03-23T02:49:49;9.00;1.00
1592;DHT22;789;51.612;7.510;2024-03-23T02:52:14;9.00;1.00
1592;DHT22;789;51.612;7.510;2024-03-23T02:54:41;8.90;1.00
1592;DHT22;789;51.612;7.510;2024-03-23T02:57:11;9.20;1.00
1592;DHT22;789;51.612;7.510;2024-03-23T02:59:38;8.80;1.00
1592;DHT22;789;51.612;7.510;2024-03-23T03:02:04;9.40;1.00
1592;DHT22;789;51.612;7.510;2024-03-23T03:04:32;8.70;1.00
1592;DHT22;789;51.612;7.510;2024-03-23T03:06:58;9.10;1.00
1592;DHT22;789;51.612;7.510;2024-03-23T03:09:25;8.70;1.00
1592;DHT22;789;51.612;7.510;2024-03-23T03:11:50;8.70;1.00
1592;DHT22;789;51.612;7.510;2024-03-23T03:14:19;8.60;1.00
1592;DHT22;789;51.612;7.510;2024-03-23T03:16:46;8.50;1.00
1592;DHT22;789;51.612;7.510;2024-03-23T03:19:13;8.40;1.00
1592;DHT22;789;51.612;7.510;2024-03-23T03:21:39;8.50;1.00
1592;DHT22;789;51.612;7.510;2024-03-23T03:24:06;8.40;1.00
1592;DHT22;789;51.612;7.510;2024-03-23T03:26:32;8.20;1.00
1592;DHT22;789;51.612;7.510;2024-03-23T03:28:59;8.20;1.00
1592;DHT22;789;51.612;7.510;2024-03-23T03:31:26;8.20;1.00
1592;DHT22;789;51.612;7.510;2024-03-23T03:33:53;8.40;1.00
1592;DHT22;789;51.612;7.510;2024-03-23T03:36:19;8.50;1.00
1592;DHT22;789;51.612;7.510;2024-03-23T03:38:46;8.50;1.00
1592;DHT22;789;51.612;7.510;2024-03-23T03:41:12;8.50;1.00
1592;DHT22;789;51.612;7.510;2024-03-23T03:43:39;8.60;1.00
1592;DHT22;789;51.612;7.510;2024-03-23T03:46:04;9.10;1.00
1592;DHT22;789;51.612;7.510;2024-03-23T03:48:34;8.70;1.00
1592;DHT22;789;51.612;7.510;2024-03-23T03:51:00;8.70;1.00
1592;DHT22;789;51.612;7.510;2024-03-23T03:53:28;8.80;1.00
1592;DHT22;789;51.612;7.510;2024-03-23T03:55:53;8.80;1.00
1592;DHT22;789;51.612;7.510;2024-03-23T03:58:20;8.80;1.00
1592;DHT22;789;51.612;7.510;2024-03-23T04:00:46;8.80;1.00
1592;DHT22;789;51.612;7.510;2024-03-23T04:03:13;8.80;1.00
1592;DHT22;789;51.612;7.510;2024-03-23T04:05:40;8.80;1.00
1592;DHT22;789;51.612;7.510;2024-03-23T04:08:07;8.90;1.00
1592;DHT22;789;51.612;7.510;2024-03-23T04:10:33;9.20;1.00
1592;DHT22;789;51.612;7.510;2024-03-23T04:13:00;8.70;1.00
1592;DHT22;789;51.612;7.510;2024-03-23T04:15:26;8.70;1.00
1592;DHT22;789;51.612;7.510;2024-03-23T04:17:55;8.80;1.00
1592;DHT22;789;51.612;7.510;2024-03-23T04:20:21;9.50;1.00
1592;DHT22;789;51.612;7.510;2024-03-23T04:22:49;8.80;1.00
1592;DHT22;789;51.612;7.510;2024-03-23T04:25:15;8.80;1.00
1592;DHT22;789;51.612;7.510;2024-03-23T04:27:41;8.90;1.00
1592;DHT22;789;51.612;7.510;2024-03-23T04:30:08;8.80;1.00
1592;DHT22;789;51.612;7.510;2024-03-23T04:32:36;8.80;1.00
1592;DHT22;789;51.612;7.510;2024-03-23T04:35:03;8.70;1.00
1592;DHT22;789;51.612;7.510;2024-03-23T04:37:32;8.80;1.00
1592;DHT22;789;51.612;7.510;2024-03-23T04:40:02;8.80;1.00
1592;DHT22;789;51.612;7.510;2024-03-23T04:42:29;8.80;1.00
1592;DHT22;789;51.612;7.510;2024-03-23T04:44:56;8.80;1.00
1592;DHT22;789;51.612;7.510;2024-03-23T04:47:23;8.80;1.00
1592;DHT22;789;51.612;7.510;2024-03-23T04:49:50;8.80;1.00
1592;DHT22;789;51.612;7.510;2024-03-23T04:52:16;8.80;1.00
1592;DHT22;789;51.612;7.510;2024-03-23T04:54:43;8.80;1.00
1592;DHT22;789;51.612;7.510;2024-03-23T04:57:12;8.80;1.00
1592;DHT22;789;51.612;7.510;2024-03-23T04:59:37;8.70;1.00
1592;DHT22;789;51.612;7.510;2024-03-23T05:02:04;8.70;1.00
1592;DHT22;789;51.612;7.510;2024-03-23T05:04:30;8.70;1.00
1592;DHT22;789;51.612;7.510;2024-03-23T05:06:57;9.10;1.00
1592;DHT22;789;51.612;7.510;2024-03-23T05:09:23;8.70;1.00
1592;DHT22;789;51.612;7.510;2024-03-23T05:11:50;8.80;1.00
1592;DHT22;789;51.612;7.510;2024-03-23T05:14:17;8.80;1.00
1592;DHT22;789;51.612;7.510;2024-03-23T05:16:44;8.70;1.00
1592;DHT22;789;51.612;7.510;2024-03-23T05:19:10;8.70;1.00
1592;DHT22;789;51.612;7.510;2024-03-23T05:21:36;9.30;1.00
1592;DHT22;789;51.612;7.510;2024-03-23T05:24:02;8.70;1.00
1592;DHT22;789;51.612;7.510;2024-03-23T05:26:29;8.70;1.00
1592;DHT22;789;51.612;7.510;2024-03-23T05:28:56;8.70;1.00
1592;DHT22;789;51.612;7.510;2024-03-23T05:31:24;8.90;1.00
1592;DHT22;789;51.612;7.510;2024-03-23T05:33:50;8.80;1.00
1592;DHT22;789;51.612;7.510;2024-03-23T05:36:17;8.70;1.00
1592;DHT22;789;51.612;7.510;2024-03-23T05:38:43;8.70;1.00
1592;DHT22;789;51.612;7.510;2024-03-23T05:41:10;9.00;1.00
1592;DHT22;789;51.612;7.510;2024-03-23T05:43:36;8.70;1.00
1592;DHT22;789;51.612;7.510;2024-03-23T05:46:03;8.70;1.00
1592;DHT22;789;51.612;7.510;2024-03-23T05:48:31;8.70;1.00
1592;DHT22;789;51.612;7.510;2024-03-23T05:50:58;8.60;1.00
1592;DHT22;789;51.612;7.510;2024-03-23T05:53:24;8.60;1.00
1592;DHT22;789;51.612;7.510;2024-03-23T05:55:51;8.60;1.00
1592;DHT22;789;51.612;7.510;2024-03-23T05:58:25;8.60;1.00
1592;DHT22;789;51.612;7.510;2024-03-23T06:00:57;8.50;1.00
1592;DHT22;789;51.612;7.510;2024-03-23T06:03:24;8.50;1.00
1592;DHT22;789;51.612;7.510;2024-03-23T06:05:52;9.10;1.00
1592;DHT22;789;51.612;7.510;2024-03-23T06:08:19;8.90;1.00
1592;DHT22;789;51.612;7.510;2024-03-23T06:10:46;8.50;1.00
1592;DHT22;789;51.612;7.510;2024-03-23T06:13:12;8.50;1.00
1592;DHT22;789;51.612;7.510;2024-03-23T06:15:39;8.70;1.00
1592;DHT22;789;51.612;7.510;2024-03-23T06:18:05;8.70;1.00
1592;DHT22;789;51.612;7.510;2024-03-23T06:20:33;8.60;1.00
1592;DHT22;789;51.612;7.510;2024-03-23T06:23:00;8.60;1.00
1592;DHT22;789;51.612;7.510;2024-03-23T06:25:27;8.70;1.00
1592;DHT22;789;51.612;7.510;2024-03-23T06:27:55;8.70;1.00
1592;DHT22;789;51.612;7.510;2024-03-23T06:30:21;8.80;1.00
1592;DHT22;789;51.612;7.510;2024-03-23T06:32:47;9.40;1.00
1592;DHT22;789;51.612;7.510;2024-03-23T06:35:14;9.10;1.00
1592;DHT22;789;51.612;7.510;2024-03-23T06:37:40;8.90;1.00
1592;DHT22;789;51.612;7.510;2024-03-23T06:40:09;8.90;1.00
1592;DHT22;789;51.612;7.510;2024-03-23T06:42:35;9.10;1.00
1592;DHT22;789;51.612;7.510;2024-03-23T06:45:03;9.70;1.00
1592;DHT22;789;51.612;7.510;2024-03-23T06:47:29;9.20;1.00
1592;DHT22;789;51.612;7.510;2024-03-23T06:49:55;9.10;1.00
1592;DHT22;789;51.612;7.510;2024-03-23T06:52:21;9.10;1.00
1592;DHT22;789;51.612;7.510;2024-03-23T06:54:48;9.20;1.00
1592;DHT22;789;51.612;7.510;2024-03-23T06:57:15;9.20;1.00
1592;DHT22;789;51.612;7.510;2024-03-23T06:59:42;9.20;1.00
1592;DHT22;789;51.612;7.510;2024-03-23T07:02:09;9.80;1.00
1592;DHT22;789;51.612;7.510;2024-03-23T07:04:35;9.30;1.00
1592;DHT22;789;51.612;7.510;2024-03-23T07:07:01;9.40;1.00
1592;DHT22;789;51.612;7.510;2024-03-23T07:09:28;9.40;1.00
1592;DHT22;789;51.612;7.510;2024-03-23T07:11:55;9.50;1.00
1592;DHT22;789;51.612;7.510;2024-03-23T07:14:23;9.70;1.00
1592;DHT22;789;51.612;7.510;2024-03-23T07:16:50;9.70;1.00
1592;DHT22;789;51.612;7.510;2024-03-23T07:19:17;9.90;1.00
1592;DHT22;789;51.612;7.510;2024-03-23T07:21:43;10.10;1.00
1592;DHT22;789;51.612;7.510;2024-03-23T07:24:10;10.40;1.00
1592;DHT22;789;51.612;7.510;2024-03-23T07:26:37;10.80;1.00
1592;DHT22;789;51.612;7.510;2024-03-23T07:29:04;11.30;1.00
1592;DHT22;789;51.612;7.510;2024-03-23T07:31:33;12.40;1.00
1592;DHT22;789;51.612;7.510;2024-03-23T07:34:00;12.70;1.00
1592;DHT22;789;51.612;7.510;2024-03-23T07:36:25;13.30;1.00
1592;DHT22;789;51.612;7.510;2024-03-23T07:38:52;14.00;1.00
1592;DHT22;789;51.612;7.510;2024-03-23T07:41:19;14.80;1.00
1592;DHT22;789;51.612;7.510;2024-03-23T07:43:47;15.50;1.00
1592;DHT22;789;51.612;7.510;2024-03-23T07:46:14;16.40;1.00
1592;DHT22;789;51.612;7.510;2024-03-23T07:48:42;17.50;1.00
1592;DHT22;789;51.612;7.510;2024-03-23T07:51:10;18.50;1.00
1592;DHT22;789;51.612;7.510;2024-03-23T07:53:38;19.30;1.00
1592;DHT22;789;51.612;7.510;2024-03-23T07:56:06;19.60;1.00
1592;DHT22;789;51.612;7.510;2024-03-23T07:58:34;19.50;1.00
1592;DHT22;789;51.612;7.510;2024-03-23T08:01:04;19.20;1.00
1592;DHT22;789;51.612;7.510;2024-03-23T08:03:33;19.30;1.00
1592;DHT22;789;51.612;7.510;2024-03-23T08:06:08;19.50;1.00
1592;DHT22;789;51.612;7.510;2024-03-23T08:08:35;19.90;1.00
1592;DHT22;789;51.612;7.510;2024-03-23T08:11:01;20.10;1.00
1592;DHT22;789;51.612;7.510;2024-03-23T08:13:28;19.90;1.00
1592;DHT22;789;51.612;7.510;2024-03-23T08:15:56;19.60;1.00
1592;DHT22;789;51.612;7.510;2024-03-23T08:18:23;19.20;1.00
1592;DHT22;789;51.612;7.510;2024-03-23T08:20:55;18.70;1.00
1592;DHT22;789;51.612;7.510;2024-03-23T08:23:24;18.60;1.00
1592;DHT22;789;51.612;7.510;2024-03-23T08:25:49;18.90;1.00
1592;DHT22;789;51.612;7.510;2024-03-23T08:28:16;18.50;1.00
1592;DHT22;789;51.612;7.510;2024-03-23T08:30:43;17.70;1.00
1592;DHT22;789;51.612;7.510;2024-03-23T08:33:10;17.20;1.00
1592;DHT22;789;51.612;7.510;2024-03-23T08:35:35;16.70;1.00
1592;DHT22;789;51.612;7.510;2024-03-23T08:38:03;16.00;1.00
1592;DHT22;789;51.612;7.510;2024-03-23T08:40:30;15.80;1.00
1592;DHT22;789;51.612;7.510;2024-03-23T08:42:56;15.70;1.00
1592;DHT22;789;51.612;7.510;2024-03-23T08:45:23;15.40;1.00
1592;DHT22;789;51.612;7.510;2024-03-23T08:47:50;15.00;1.00
1592;DHT22;789;51.612;7.510;2024-03-23T08:50:16;15.90;1.00
1592;DHT22;789;51.612;7.510;2024-03-23T08:52:43;17.00;1.00
1592;DHT22;789;51.612;7.510;2024-03-23T08:55:08;18.00;1.00
1592;DHT22;789;51.612;7.510;2024-03-23T08:57:37;18.90;1.00
1592;DHT22;789;51.612;7.510;2024-03-23T09:00:03;19.50;1.00
1592;DHT22;789;51.612;7.510;2024-03-23T09:02:31;19.60;1.00
1592;DHT22;789;51.612;7.510;2024-03-23T09:04:57;20.10;1.00
1592;DHT22;789;51.612;7.510;2024-03-23T09:07:29;21.10;1.00
1592;DHT22;789;51.612;7.510;2024-03-23T09:09:55;21.70;1.00
1592;DHT22;789;51.612;7.510;2024-03-23T09:12:22;22.60;1.00
1592;DHT22;789;51.612;7.510;2024-03-23T09:14:50;23.30;1.00
1592;DHT22;789;51.612;7.510;2024-03-23T09:17:17;23.60;1.00
1592;DHT22;789;51.612;7.510;2024-03-23T09:19:43;24.10;1.00
1592;DHT22;789;51.612;7.510;2024-03-23T09:22:10;23.80;1.00
1592;DHT22;789;51.612;7.510;2024-03-23T09:24:36;22.60;1.00
1592;DHT22;789;51.612;7.510;2024-03-23T09:27:04;21.40;1.00
1592;DHT22;789;51.612;7.510;2024-03-23T09:29:30;20.50;1.00
1592;DHT22;789;51.612;7.510;2024-03-23T09:31:58;19.90;1.00
1592;DHT22;789;51.612;7.510;2024-03-23T09:34:24;19.30;1.00
1592;DHT22;789;51.612;7.510;2024-03-23T09:36:51;19.30;1.00
1592;DHT22;789;51.612;7.510;2024-03-23T09:39:17;19.90;1.00
1592;DHT22;789;51.612;7.510;2024-03-23T09:41:44;21.00;1.00
1592;DHT22;789;51.612;7.510;2024-03-23T09:44:10;21.80;1.00
1592;DHT22;789;51.612;7.510;2024-03-23T09:46:38;21.70;1.00
1592;DHT22;789;51.612;7.510;2024-03-23T09:49:07;21.20;1.00
1592;DHT22;789;51.612;7.510;2024-03-23T09:51:36;20.00;1.00
1592;DHT22;789;51.612;7.510;2024-03-23T09:54:02;18.90;1.00
1592;DHT22;789;51.612;7.510;2024-03-23T09:56:29;17.70;1.00
1592;DHT22;789;51.612;7.510;2024-03-23T09:59:00;16.50;1.00
1592;DHT22;789;51.612;7.510;2024-03-23T10:01:29;15.50;1.00
1592;DHT22;789;51.612;7.510;2024-03-23T10:03:55;14.70;1.00
1592;DHT22;789;51.612;7.510;2024-03-23T10:06:23;15.10;1.00
1592;DHT22;789;51.612;7.510;2024-03-23T10:08:50;16.70;1.00
1592;DHT22;789;51.612;7.510;2024-03-23T10:11:18;18.00;1.00
1592;DHT22;789;51.612;7.510;2024-03-23T10:13:45;19.30;1.00
1592;DHT22;789;51.612;7.510;2024-03-23T10:16:21;18.60;1.00
1592;DHT22;789;51.612;7.510;2024-03-23T10:18:47;17.90;1.00
1592;DHT22;789;51.612;7.510;2024-03-23T10:21:15;17.00;1.00
1592;DHT22;789;51.612;7.510;2024-03-23T10:23:43;16.20;1.00
1592;DHT22;789;51.612;7.510;2024-03-23T10:26:15;15.30;1.00
1592;DHT22;789;51.612;7.510;2024-03-23T10:28:51;15.30;1.00
1592;DHT22;789;51.612;7.510;2024-03-23T10:31:18;15.70;1.00
1592;DHT22;789;51.612;7.510;2024-03-23T10:33:45;16.40;1.00
1592;DHT22;789;51.612;7.510;2024-03-23T10:36:13;17.20;1.00
1592;DHT22;789;51.612;7.510;2024-03-23T10:38:43;17.90;1.00
1592;DHT22;789;51.612;7.510;2024-03-23T10:41:10;18.70;1.00
1592;DHT22;789;51.612;7.510;2024-03-23T10:43:37;20.00;1.00
1592;DHT22;789;51.612;7.510;2024-03-23T10:46:04;21.70;1.00
1592;DHT22;789;51.612;7.510;2024-03-23T10:48:30;22.80;1.00
1592;DHT22;789;51.612;7.510;2024-03-23T10:50:58;23.40;1.00
1592;DHT22;789;51.612;7.510;2024-03-23T10:53:26;23.70;1.00
1592;DHT22;789;51.612;7.510;2024-03-23T10:55:55;23.90;1.00
1592;DHT22;789;51.612;7.510;2024-03-23T10:58:24;23.90;1.00
1592;DHT22;789;51.612;7.510;2024-03-23T11:00:53;24.80;1.00
1592;DHT22;789;51.612;7.510;2024-03-23T11:03:33;25.70;1.00
1592;DHT22;789;51.612;7.510;2024-03-23T11:06:00;25.50;1.00
1592;DHT22;789;51.612;7.510;2024-03-23T11:08:31;25.50;1.00
1592;DHT22;789;51.612;7.510;2024-03-23T11:11:21;25.40;1.00
1592;DHT22;789;51.612;7.510;2024-03-23T11:13:48;25.20;1.00
1592;DHT22;789;51.612;7.510;2024-03-23T11:16:16;25.30;1.00
1592;DHT22;789;51.612;7.510;2024-03-23T11:18:42;25.50;1.00
1592;DHT22;789;51.612;7.510;2024-03-23T11:21:10;25.20;1.00
1592;DHT22;789;51.612;7.510;2024-03-23T11:23:36;24.20;1.00
1592;DHT22;789;51.612;7.510;2024-03-23T11:26:07;23.40;1.00
1592;DHT22;789;51.612;7.510;2024-03-23T11:28:35;22.30;1.00
1592;DHT22;789;51.612;7.510;2024-03-23T11:31:01;21.10;1.00
1592;DHT22;789;51.612;7.510;2024-03-23T11:33:34;19.20;1.00
1592;DHT22;789;51.612;7.510;2024-03-23T11:36:01;17.30;1.00
1592;DHT22;789;51.612;7.510;2024-03-23T11:38:27;15.90;1.00
1592;DHT22;789;51.612;7.510;2024-03-23T11:40:54;14.00;1.00
1592;DHT22;789;51.612;7.510;2024-03-23T11:43:20;12.30;1.00
1592;DHT22;789;51.612;7.510;2024-03-23T11:45:50;11.50;1.00
1592;DHT22;789;51.612;7.510;2024-03-23T11:48:19;10.90;1.00
1592;DHT22;789;51.612;7.510;2024-03-23T11:50:47;10.50;1.00
1592;DHT22;789;51.612;7.510;2024-03-23T11:53:15;10.40;1.00
1592;DHT22;789;51.612;7.510;2024-03-23T11:55:44;10.80;1.00
1592;DHT22;789;51.612;7.510;2024-03-23T11:58:10;12.30;1.00
1592;DHT22;789;51.612;7.510;2024-03-23T12:00:37;14.20;1.00
1592;DHT22;789;51.612;7.510;2024-03-23T12:03:05;16.00;1.00
1592;DHT22;789;51.612;7.510;2024-03-23T12:05:32;17.50;1.00
1592;DHT22;789;51.612;7.510;2024-03-23T12:08:18;19.50;1.00
1592;DHT22;789;51.612;7.510;2024-03-23T12:10:47;21.10;1.00
1592;DHT22;789;51.612;7.510;2024-03-23T12:13:15;21.20;1.00
1592;DHT22;789;51.612;7.510;2024-03-23T12:15:42;21.00;1.00
1592;DHT22;789;51.612;7.510;2024-03-23T12:18:10;20.50;1.00
1592;DHT22;789;51.612;7.510;2024-03-23T12:20:37;20.10;1.00
1592;DHT22;789;51.612;7.510;2024-03-23T12:23:11;20.00;1.00
1592;DHT22;789;51.612;7.510;2024-03-23T12:25:38;19.60;1.00
1592;DHT22;789;51.612;7.510;2024-03-23T12:28:04;19.10;1.00
1592;DHT22;789;51.612;7.510;2024-03-23T12:30:34;18.50;1.00
1592;DHT22;789;51.612;7.510;2024-03-23T12:33:00;17.90;1.00
1592;DHT22;789;51.612;7.510;2024-03-23T12:35:28;17.30;1.00
1592;DHT22;789;51.612;7.510;2024-03-23T12:37:54;16.70;1.00
1592;DHT22;789;51.612;7.510;2024-03-23T12:40:21;16.30;1.00
1592;DHT22;789;51.612;7.510;2024-03-23T12:42:47;15.80;1.00
1592;DHT22;789;51.612;7.510;2024-03-23T12:45:14;15.30;1.00
1592;DHT22;789;51.612;7.510;2024-03-23T12:47:39;14.70;1.00
1592;DHT22;789;51.612;7.510;2024-03-23T12:50:07;14.30;1.00
1592;DHT22;789;51.612;7.510;2024-03-23T12:52:34;13.90;1.00
1592;DHT22;789;51.612;7.510;2024-03-23T12:55:01;13.60;1.00
1592;DHT22;789;51.612;7.510;2024-03-23T12:57:28;13.30;1.00
1592;DHT22;789;51.612;7.510;2024-03-23T12:59:55;13.10;1.00
1592;DHT22;789;51.612;7.510;2024-03-23T13:02:21;12.80;1.00
1592;DHT22;789;51.612;7.510;2024-03-23T13:04:50;12.80;1.00
1592;DHT22;789;51.612;7.510;2024-03-23T13:07:16;13.10;1.00
1592;DHT22;789;51.612;7.510;2024-03-23T13:09:44;12.90;1.00
1592;DHT22;789;51.612;7.510;2024-03-23T13:12:10;13.30;1.00
1592;DHT22;789;51.612;7.510;2024-03-23T13:14:37;13.70;1.00
1592;DHT22;789;51.612;7.510;2024-03-23T13:17:03;13.10;1.00
1592;DHT22;789;51.612;7.510;2024-03-23T13:19:30;13.00;1.00
1592;DHT22;789;51.612;7.510;2024-03-23T13:21:57;13.00;1.00
1592;DHT22;789;51.612;7.510;2024-03-23T13:24:25;13.00;1.00
1592;DHT22;789;51.612;7.510;2024-03-23T13:26:53;12.90;1.00
1592;DHT22;789;51.612;7.510;2024-03-23T13:29:20;13.00;1.00
1592;DHT22;789;51.612;7.510;2024-03-23T13:31:46;12.90;1.00
1592;DHT22;789;51.612;7.510;2024-03-23T13:34:13;12.70;1.00
1592;DHT22;789;51.612;7.510;2024-03-23T13:36:40;12.40;1.00
1592;DHT22;789;51.612;7.510;2024-03-23T13:39:07;12.30;1.00
1592;DHT22;789;51.612;7.510;2024-03-23T13:41:38;12.10;1.00
1592;DHT22;789;51.612;7.510;2024-03-23T13:44:06;11.80;1.00
1592;DHT22;789;51.612;7.510;2024-03-23T13:46:32;11.40;1.00
1592;DHT22;789;51.612;7.510;2024-03-23T13:49:00;11.10;1.00
1592;DHT22;789;51.612;7.510;2024-03-23T13:51:26;10.70;1.00
1592;DHT22;789;51.612;7.510;2024-03-23T13:53:53;10.50;1.00
1592;DHT22;789;51.612;7.510;2024-03-23T13:56:20;10.40;1.00
1592;DHT22;789;51.612;7.510;2024-03-23T13:58:46;9.80;1.00
1592;DHT22;789;51.612;7.510;2024-03-23T14:01:14;10.40;1.00
1592;DHT22;789;51.612;7.510;2024-03-23T14:03:41;10.60;1.00
1592;DHT22;789;51.612;7.510;2024-03-23T14:06:07;10.90;1.00
1592;DHT22;789;51.612;7.510;2024-03-23T14:08:34;10.90;1.00
1592;DHT22;789;51.612;7.510;2024-03-23T14:11:02;10.90;1.00
1592;DHT22;789;51.612;7.510;2024-03-23T14:13:30;11.10;1.00
1592;DHT22;789;51.612;7.510;2024-03-23T14:15:55;10.90;1.00
1592;DHT22;789;51.612;7.510;2024-03-23T14:18:24;10.80;1.00
1592;DHT22;789;51.612;7.510;2024-03-23T14:20:50;10.80;1.00
1592;DHT22;789;51.612;7.510;2024-03-23T14:23:17;10.80;1.00
1592;DHT22;789;51.612;7.510;2024-03-23T14:25:43;10.90;1.00
1592;DHT22;789;51.612;7.510;2024-03-23T14:28:10;10.60;1.00
1592;DHT22;789;51.612;7.510;2024-03-23T14:30:40;10.60;1.00
1592;DHT22;789;51.612;7.510;2024-03-23T14:33:07;10.50;1.00
1592;DHT22;789;51.612;7.510;2024-03-23T14:35:34;10.70;1.00
1592;DHT22;789;51.612;7.510;2024-03-23T14:38:01;10.70;1.00
1592;DHT22;789;51.612;7.510;2024-03-23T14:40:27;10.90;1.00
1592;DHT22;789;51.612;7.510;2024-03-23T14:42:54;10.90;1.00
1592;DHT22;789;51.612;7.510;2024-03-23T14:45:21;11.00;1.00
1592;DHT22;789;51.612;7.510;2024-03-23T14:47:49;11.00;1.00
1592;DHT22;789;51.612;7.510;2024-03-23T14:50:16;11.10;1.00
1592;DHT22;789;51.612;7.510;2024-03-23T14:52:45;11.10;1.00
1592;DHT22;789;51.612;7.510;2024-03-23T14:55:11;11.10;1.00
1592;DHT22;789;51.612;7.510;2024-03-23T14:57:38;11.20;1.00
1592;DHT22;789;51.612;7.510;2024-03-23T15:00:06;11.20;1.00
1592;DHT22;789;51.612;7.510;2024-03-23T15:02:33;11.20;1.00
1592;DHT22;789;51.612;7.510;2024-03-23T15:05:00;11.10;1.00
1592;DHT22;789;51.612;7.510;2024-03-23T15:07:26;10.90;1.00
1592;DHT22;789;51.612;7.510;2024-03-23T15:09:55;10.90;1.00
1592;DHT22;789;51.612;7.510;2024-03-23T15:12:21;10.80;1.00
1592;DHT22;789;51.612;7.510;2024-03-23T15:14:47;10.80;1.00
1592;DHT22;789;51.612;7.510;2024-03-23T15:17:15;10.90;1.00
1592;DHT22;789;51.612;7.510;2024-03-23T15:19:40;11.10;1.00
1592;DHT22;789;51.612;7.510;2024-03-23T15:22:08;11.30;1.00
1592;DHT22;789;51.612;7.510;2024-03-23T15:24:34;11.20;1.00
1592;DHT22;789;51.612;7.510;2024-03-23T15:27:03;11.10;1.00
1592;DHT22;789;51.612;7.510;2024-03-23T15:29:29;11.10;1.00
1592;DHT22;789;51.612;7.510;2024-03-23T15:31:56;11.10;1.00
1592;DHT22;789;51.612;7.510;2024-03-23T15:34:22;11.20;1.00
1592;DHT22;789;51.612;7.510;2024-03-23T15:36:49;11.20;1.00
1592;DHT22;789;51.612;7.510;2024-03-23T15:39:16;11.10;1.00
1592;DHT22;789;51.612;7.510;2024-03-23T15:41:44;11.20;1.00
1592;DHT22;789;51.612;7.510;2024-03-23T15:44:11;11.20;1.00
1592;DHT22;789;51.612;7.510;2024-03-23T15:46:38;11.10;1.00
1592;DHT22;789;51.612;7.510;2024-03-23T15:49:04;11.10;1.00
1592;DHT22;789;51.612;7.510;2024-03-23T15:51:31;11.10;1.00
1592;DHT22;789;51.612;7.510;2024-03-23T15:54:00;11.10;1.00
1592;DHT22;789;51.612;7.510;2024-03-23T15:56:28;11.20;1.00
1592;DHT22;789;51.612;7.510;2024-03-23T15:58:55;11.20;1.00
1592;DHT22;789;51.612;7.510;2024-03-23T16:01:28;11.30;1.00
1592;DHT22;789;51.612;7.510;2024-03-23T16:03:53;11.30;1.00
1592;DHT22;789;51.612;7.510;2024-03-23T16:06:20;11.40;1.00
1592;DHT22;789;51.612;7.510;2024-03-23T16:08:46;11.30;1.00
1592;DHT22;789;51.612;7.510;2024-03-23T16:11:13;11.40;1.00
1592;DHT22;789;51.612;7.510;2024-03-23T16:13:38;11.30;1.00
1592;DHT22;789;51.612;7.510;2024-03-23T16:16:06;11.30;1.00
1592;DHT22;789;51.612;7.510;2024-03-23T16:18:35;11.20;1.00
1592;DHT22;789;51.612;7.510;2024-03-23T16:21:03;11.00;1.00
1592;DHT22;789;51.612;7.510;2024-03-23T16:23:29;10.90;1.00
1592;DHT22;789;51.612;7.510;2024-03-23T16:25:56;10.70;1.00
1592;DHT22;789;51.612;7.510;2024-03-23T16:28:25;10.80;1.00
1592;DHT22;789;51.612;7.510;2024-03-23T16:30:54;10.70;1.00
1592;DHT22;789;51.612;7.510;2024-03-23T16:33:20;11.10;1.00
1592;DHT22;789;51.612;7.510;2024-03-23T16:35:56;10.60;1.00
1592;DHT22;789;51.612;7.510;2024-03-23T16:38:22;10.60;1.00
1592;DHT22;789;51.612;7.510;2024-03-23T16:40:56;10.60;1.00
1592;DHT22;789;51.612;7.510;2024-03-23T16:43:23;10.50;1.00
1592;DHT22;789;51.612;7.510;2024-03-23T16:45:53;10.40;1.00
1592;DHT22;789;51.612;7.510;2024-03-23T16:48:21;10.30;1.00
1592;DHT22;789;51.612;7.510;2024-03-23T16:50:46;10.30;1.00
1592;DHT22;789;51.612;7.510;2024-03-23T16:53:15;10.30;1.00
1592;DHT22;789;51.612;7.510;2024-03-23T16:55:41;10.30;1.00
1592;DHT22;789;51.612;7.510;2024-03-23T16:58:08;10.20;1.00
1592;DHT22;789;51.612;7.510;2024-03-23T17:00:34;10.20;1.00
1592;DHT22;789;51.612;7.510;2024-03-23T17:03:01;10.20;1.00
1592;DHT22;789;51.612;7.510;2024-03-23T17:05:27;10.10;1.00
1592;DHT22;789;51.612;7.510;2024-03-23T17:07:55;10.00;1.00
1592;DHT22;789;51.612;7.510;2024-03-23T17:10:23;9.90;1.00
1592;DHT22;789;51.612;7.510;2024-03-23T17:12:50;9.80;1.00
1592;DHT22;789;51.612;7.510;2024-03-23T17:15:15;9.80;1.00
1592;DHT22;789;51.612;7.510;2024-03-23T17:17:47;9.80;1.00
1592;DHT22;789;51.612;7.510;2024-03-23T17:20:14;9.70;1.00
1592;DHT22;789;51.612;7.510;2024-03-23T17:22:41;9.70;1.00
1592;DHT22;789;51.612;7.510;2024-03-23T17:25:07;10.40;1.00
1592;DHT22;789;51.612;7.510;2024-03-23T17:27:36;9.70;1.00
1592;DHT22;789;51.612;7.510;2024-03-23T17:30:02;9.70;1.00
1592;DHT22;789;51.612;7.510;2024-03-23T17:32:31;9.70;1.00
1592;DHT22;789;51.612;7.510;2024-03-23T17:34:57;9.70;1.00